Hilltop, Minnesota
Current Conditions -  °F | °C
As of 12:27 PM on Thursday 18 Dec 2014 (Local Time) from KMIC Reporting Station
Haze Haze  
Wind Chill: 16°   Ceiling: 1600
Heat Index: 22°   Visibility: 4mi
Dew Point: 15°   Wind: 5mph
Humidity: 75%   Direction: 210°SSW
Pressure: 30.27"   Gusts: NA
Location:  45.0516°N, 93.2549°W
Report Text: KMIC 181827Z 21004KT 4SM HZ BKN016 OVC023 M06/M09 A3027 RMK AO2 SNE22 P0000 T10561094
Loading
Personal Weather Stations






























Interactive Weather Map New forecast layout! Learn more

10-Day Weather Forecast

Advertisements
Track Severe Weather on mobile